sensor_id;sensor_type;location;lat;lon;timestamp;temperature;humidity
14170;DHT22;63889;50.596;8.690;2024-03-23T00:55:08;8.40;99.90
14170;DHT22;63889;50.596;8.690;2024-03-23T00:57:34;8.40;99.90
14170;DHT22;63889;50.596;8.690;2024-03-23T00:59:59;8.60;99.90
14170;DHT22;63889;50.596;8.690;2024-03-23T01:02:25;8.70;99.90
14170;DHT22;63889;50.596;8.690;2024-03-23T01:04:50;8.70;99.90
14170;DHT22;63889;50.596;8.690;2024-03-23T01:07:16;8.90;99.90
14170;DHT22;63889;50.596;8.690;2024-03-23T01:09:41;9.00;99.90
14170;DHT22;63889;50.596;8.690;2024-03-23T01:12:07;9.10;99.90
14170;DHT22;63889;50.596;8.690;2024-03-23T01:14:32;9.20;99.90
14170;DHT22;63889;50.596;8.690;2024-03-23T01:16:58;9.30;99.90
14170;DHT22;63889;50.596;8.690;2024-03-23T01:19:23;9.50;99.90
14170;DHT22;63889;50.596;8.690;2024-03-23T01:21:49;9.40;99.90
14170;DHT22;63889;50.596;8.690;2024-03-23T01:24:15;9.30;99.90
14170;DHT22;63889;50.596;8.690;2024-03-23T01:26:40;9.40;99.90
14170;DHT22;63889;50.596;8.690;2024-03-23T01:29:06;9.40;99.90
14170;DHT22;63889;50.596;8.690;2024-03-23T01:31:31;9.40;99.90
14170;DHT22;63889;50.596;8.690;2024-03-23T01:33:57;9.20;99.90
14170;DHT22;63889;50.596;8.690;2024-03-23T01:36:24;9.20;99.90
14170;DHT22;63889;50.596;8.690;2024-03-23T01:38:50;9.20;99.90
14170;DHT22;63889;50.596;8.690;2024-03-23T01:41:16;9.20;99.90
14170;DHT22;63889;50.596;8.690;2024-03-23T01:43:41;9.20;99.90
14170;DHT22;63889;50.596;8.690;2024-03-23T01:46:07;9.00;99.90
14170;DHT22;63889;50.596;8.690;2024-03-23T01:48:32;8.90;99.90
14170;DHT22;63889;50.596;8.690;2024-03-23T01:50:58;9.10;99.90
14170;DHT22;63889;50.596;8.690;2024-03-23T01:53:24;9.20;99.90
14170;DHT22;63889;50.596;8.690;2024-03-23T01:55:51;9.30;99.90
14170;DHT22;63889;50.596;8.690;2024-03-23T01:58:17;9.30;99.90
14170;DHT22;63889;50.596;8.690;2024-03-23T02:00:42;9.20;99.90
14170;DHT22;63889;50.596;8.690;2024-03-23T02:03:24;9.10;99.90
14170;DHT22;63889;50.596;8.690;2024-03-23T02:05:51;9.20;99.90
14170;DHT22;63889;50.596;8.690;2024-03-23T02:08:18;9.10;99.90
14170;DHT22;63889;50.596;8.690;2024-03-23T02:10:44;9.10;99.90
14170;DHT22;63889;50.596;8.690;2024-03-23T02:13:10;9.10;99.90
14170;DHT22;63889;50.596;8.690;2024-03-23T02:15:35;9.20;99.90
14170;DHT22;63889;50.596;8.690;2024-03-23T02:18:01;9.20;99.90
14170;DHT22;63889;50.596;8.690;2024-03-23T02:20:26;9.10;99.90
14170;DHT22;63889;50.596;8.690;2024-03-23T02:22:53;9.20;99.90
14170;DHT22;63889;50.596;8.690;2024-03-23T02:25:19;9.40;99.90
14170;DHT22;63889;50.596;8.690;2024-03-23T02:27:44;9.30;99.90
14170;DHT22;63889;50.596;8.690;2024-03-23T02:30:10;9.30;99.90
14170;DHT22;63889;50.596;8.690;2024-03-23T02:32:35;9.30;99.90
14170;DHT22;63889;50.596;8.690;2024-03-23T02:35:01;9.30;99.90
14170;DHT22;63889;50.596;8.690;2024-03-23T02:37:27;9.20;99.90
14170;DHT22;63889;50.596;8.690;2024-03-23T02:39:52;9.10;99.90
14170;DHT22;63889;50.596;8.690;2024-03-23T02:42:18;9.10;99.90
14170;DHT22;63889;50.596;8.690;2024-03-23T02:44:44;9.10;99.90
14170;DHT22;63889;50.596;8.690;2024-03-23T02:47:10;9.00;99.90
14170;DHT22;63889;50.596;8.690;2024-03-23T02:49:35;8.80;99.90
14170;DHT22;63889;50.596;8.690;2024-03-23T02:52:01;8.80;99.90
14170;DHT22;63889;50.596;8.690;2024-03-23T02:54:27;8.90;99.90
14170;DHT22;63889;50.596;8.690;2024-03-23T02:56:52;8.90;99.90
14170;DHT22;63889;50.596;8.690;2024-03-23T02:59:18;8.90;99.90
14170;DHT22;63889;50.596;8.690;2024-03-23T03:01:43;9.00;99.90
14170;DHT22;63889;50.596;8.690;2024-03-23T03:04:09;9.00;99.90
14170;DHT22;63889;50.596;8.690;2024-03-23T03:06:34;9.10;99.90
14170;DHT22;63889;50.596;8.690;2024-03-23T03:09:00;9.20;99.90
14170;DHT22;63889;50.596;8.690;2024-03-23T03:11:25;9.40;99.90
14170;DHT22;63889;50.596;8.690;2024-03-23T03:13:51;9.40;99.90
14170;DHT22;63889;50.596;8.690;2024-03-23T03:16:17;9.50;99.90
14170;DHT22;63889;50.596;8.690;2024-03-23T03:18:42;9.60;99.90
14170;DHT22;63889;50.596;8.690;2024-03-23T03:21:09;9.70;99.90
14170;DHT22;63889;50.596;8.690;2024-03-23T03:23:39;9.80;99.90
14170;DHT22;63889;50.596;8.690;2024-03-23T03:26:06;9.70;99.90
14170;DHT22;63889;50.596;8.690;2024-03-23T03:28:32;9.40;99.90
14170;DHT22;63889;50.596;8.690;2024-03-23T03:30:59;9.20;99.90
14170;DHT22;63889;50.596;8.690;2024-03-23T03:33:25;9.10;99.90
14170;DHT22;63889;50.596;8.690;2024-03-23T03:35:51;9.30;99.90
14170;DHT22;63889;50.596;8.690;2024-03-23T03:38:18;9.30;99.90
14170;DHT22;63889;50.596;8.690;2024-03-23T03:40:43;9.30;99.90
14170;DHT22;63889;50.596;8.690;2024-03-23T03:43:09;9.50;99.90
14170;DHT22;63889;50.596;8.690;2024-03-23T03:45:35;9.60;99.90
14170;DHT22;63889;50.596;8.690;2024-03-23T03:48:00;9.60;99.90
14170;DHT22;63889;50.596;8.690;2024-03-23T03:50:26;9.60;99.90
14170;DHT22;63889;50.596;8.690;2024-03-23T03:52:51;9.70;99.90
14170;DHT22;63889;50.596;8.690;2024-03-23T03:55:17;9.70;99.90
14170;DHT22;63889;50.596;8.690;2024-03-23T03:57:43;9.90;99.90
14170;DHT22;63889;50.596;8.690;2024-03-23T04:00:09;10.10;99.90
14170;DHT22;63889;50.596;8.690;2024-03-23T04:02:38;10.10;99.90
14170;DHT22;63889;50.596;8.690;2024-03-23T04:05:04;10.00;99.90
14170;DHT22;63889;50.596;8.690;2024-03-23T04:07:30;10.00;99.90
14170;DHT22;63889;50.596;8.690;2024-03-23T04:09:55;10.00;99.90
14170;DHT22;63889;50.596;8.690;2024-03-23T04:12:21;10.00;99.90
14170;DHT22;63889;50.596;8.690;2024-03-23T04:14:47;9.90;99.90
14170;DHT22;63889;50.596;8.690;2024-03-23T04:17:12;9.80;99.90
14170;DHT22;63889;50.596;8.690;2024-03-23T04:19:38;9.70;99.90
14170;DHT22;63889;50.596;8.690;2024-03-23T04:22:06;9.80;99.90
14170;DHT22;63889;50.596;8.690;2024-03-23T04:24:31;9.70;99.90
14170;DHT22;63889;50.596;8.690;2024-03-23T04:26:57;9.70;99.90
14170;DHT22;63889;50.596;8.690;2024-03-23T04:29:23;9.60;99.90
14170;DHT22;63889;50.596;8.690;2024-03-23T04:31:48;9.60;99.90
14170;DHT22;63889;50.596;8.690;2024-03-23T04:34:14;9.60;99.90
14170;DHT22;63889;50.596;8.690;2024-03-23T04:36:40;9.40;99.90
14170;DHT22;63889;50.596;8.690;2024-03-23T04:39:05;9.40;99.90
14170;DHT22;63889;50.596;8.690;2024-03-23T04:41:40;9.40;99.90
14170;DHT22;63889;50.596;8.690;2024-03-23T04:44:06;9.40;99.90
14170;DHT22;63889;50.596;8.690;2024-03-23T04:46:31;9.40;99.90
14170;DHT22;63889;50.596;8.690;2024-03-23T04:48:57;9.40;99.90
14170;DHT22;63889;50.596;8.690;2024-03-23T04:51:25;9.40;99.90
14170;DHT22;63889;50.596;8.690;2024-03-23T04:53:51;9.40;99.90
14170;DHT22;63889;50.596;8.690;2024-03-23T04:56:17;9.40;99.90
14170;DHT22;63889;50.596;8.690;2024-03-23T04:58:43;9.40;99.90
14170;DHT22;63889;50.596;8.690;2024-03-23T05:01:09;9.50;99.90
14170;DHT22;63889;50.596;8.690;2024-03-23T05:03:35;9.60;99.90
14170;DHT22;63889;50.596;8.690;2024-03-23T05:06:00;9.50;99.90
14170;DHT22;63889;50.596;8.690;2024-03-23T05:08:26;9.50;99.90
14170;DHT22;63889;50.596;8.690;2024-03-23T05:10:51;9.30;99.90
14170;DHT22;63889;50.596;8.690;2024-03-23T05:13:17;9.20;99.90
14170;DHT22;63889;50.596;8.690;2024-03-23T05:15:43;9.10;99.90
14170;DHT22;63889;50.596;8.690;2024-03-23T05:18:09;9.20;99.90
14170;DHT22;63889;50.596;8.690;2024-03-23T05:20:34;9.20;99.90
14170;DHT22;63889;50.596;8.690;2024-03-23T05:23:00;9.10;99.90
14170;DHT22;63889;50.596;8.690;2024-03-23T05:25:25;9.10;99.90
14170;DHT22;63889;50.596;8.690;2024-03-23T05:27:51;9.10;99.90
14170;DHT22;63889;50.596;8.690;2024-03-23T05:30:17;9.10;99.90
14170;DHT22;63889;50.596;8.690;2024-03-23T05:32:42;9.10;99.90
14170;DHT22;63889;50.596;8.690;2024-03-23T05:35:09;9.10;99.90
14170;DHT22;63889;50.596;8.690;2024-03-23T05:37:35;9.00;99.90
14170;DHT22;63889;50.596;8.690;2024-03-23T05:40:01;8.90;99.90
14170;DHT22;63889;50.596;8.690;2024-03-23T05:42:27;8.90;99.90
14170;DHT22;63889;50.596;8.690;2024-03-23T05:44:53;8.80;99.90
14170;DHT22;63889;50.596;8.690;2024-03-23T05:47:18;8.60;99.90
14170;DHT22;63889;50.596;8.690;2024-03-23T05:49:46;8.50;99.90
14170;DHT22;63889;50.596;8.690;2024-03-23T05:52:12;8.50;99.90
14170;DHT22;63889;50.596;8.690;2024-03-23T05:54:37;8.60;99.90
14170;DHT22;63889;50.596;8.690;2024-03-23T05:57:03;8.50;99.90
14170;DHT22;63889;50.596;8.690;2024-03-23T05:59:29;8.50;99.90
14170;DHT22;63889;50.596;8.690;2024-03-23T06:01:55;8.40;99.90
14170;DHT22;63889;50.596;8.690;2024-03-23T06:04:20;8.40;99.90
14170;DHT22;63889;50.596;8.690;2024-03-23T06:06:46;8.40;99.90
14170;DHT22;63889;50.596;8.690;2024-03-23T06:09:12;8.30;99.90
14170;DHT22;63889;50.596;8.690;2024-03-23T06:11:38;8.40;99.90
14170;DHT22;63889;50.596;8.690;2024-03-23T06:14:03;8.40;99.90
14170;DHT22;63889;50.596;8.690;2024-03-23T06:16:29;8.40;99.90
14170;DHT22;63889;50.596;8.690;2024-03-23T06:18:56;8.40;99.90
14170;DHT22;63889;50.596;8.690;2024-03-23T06:21:27;8.40;99.90
14170;DHT22;63889;50.596;8.690;2024-03-23T06:24:08;8.50;99.90
14170;DHT22;63889;50.596;8.690;2024-03-23T06:26:37;8.50;99.90
14170;DHT22;63889;50.596;8.690;2024-03-23T06:29:03;8.70;99.90
14170;DHT22;63889;50.596;8.690;2024-03-23T06:31:30;8.60;99.90
14170;DHT22;63889;50.596;8.690;2024-03-23T06:33:56;8.60;99.90
14170;DHT22;63889;50.596;8.690;2024-03-23T06:36:35;8.70;99.90
14170;DHT22;63889;50.596;8.690;2024-03-23T06:39:33;8.70;99.90
14170;DHT22;63889;50.596;8.690;2024-03-23T06:42:03;8.50;99.90
14170;DHT22;63889;50.596;8.690;2024-03-23T06:51:27;8.60;99.90
14170;DHT22;63889;50.596;8.690;2024-03-23T06:54:03;8.60;99.90
14170;DHT22;63889;50.596;8.690;2024-03-23T06:56:41;8.60;99.90
14170;DHT22;63889;50.596;8.690;2024-03-23T06:59:36;8.50;99.90
14170;DHT22;63889;50.596;8.690;2024-03-23T07:02:06;8.30;99.90
14170;DHT22;63889;50.596;8.690;2024-03-23T07:04:44;8.30;99.90
14170;DHT22;63889;50.596;8.690;2024-03-23T07:07:51;8.30;99.90
14170;DHT22;63889;50.596;8.690;2024-03-23T07:10:19;8.40;99.90
14170;DHT22;63889;50.596;8.690;2024-03-23T07:12:45;8.40;99.90
14170;DHT22;63889;50.596;8.690;2024-03-23T07:15:10;8.30;99.90
14170;DHT22;63889;50.596;8.690;2024-03-23T07:17:36;8.30;99.90
14170;DHT22;63889;50.596;8.690;2024-03-23T07:20:02;8.20;99.90
14170;DHT22;63889;50.596;8.690;2024-03-23T07:22:35;8.40;99.90
14170;DHT22;63889;50.596;8.690;2024-03-23T07:25:01;8.20;99.90
14170;DHT22;63889;50.596;8.690;2024-03-23T07:27:27;8.30;99.90
14170;DHT22;63889;50.596;8.690;2024-03-23T07:29:52;8.50;99.90
14170;DHT22;63889;50.596;8.690;2024-03-23T07:32:18;8.60;99.90
14170;DHT22;63889;50.596;8.690;2024-03-23T07:34:44;8.40;99.90
14170;DHT22;63889;50.596;8.690;2024-03-23T07:37:10;8.50;99.90
14170;DHT22;63889;50.596;8.690;2024-03-23T07:39:36;8.40;99.90
14170;DHT22;63889;50.596;8.690;2024-03-23T07:42:01;8.20;99.90
14170;DHT22;63889;50.596;8.690;2024-03-23T07:44:27;8.20;99.90
14170;DHT22;63889;50.596;8.690;2024-03-23T07:46:52;8.20;99.90
14170;DHT22;63889;50.596;8.690;2024-03-23T07:49:18;8.30;99.90
14170;DHT22;63889;50.596;8.690;2024-03-23T07:51:44;8.30;99.90
14170;DHT22;63889;50.596;8.690;2024-03-23T07:54:10;8.40;99.90
14170;DHT22;63889;50.596;8.690;2024-03-23T07:56:35;8.40;99.90
14170;DHT22;63889;50.596;8.690;2024-03-23T07:59:01;8.50;99.90
14170;DHT22;63889;50.596;8.690;2024-03-23T08:01:28;8.60;99.90
14170;DHT22;63889;50.596;8.690;2024-03-23T08:03:54;8.70;99.90
14170;DHT22;63889;50.596;8.690;2024-03-23T08:06:20;8.90;99.90
14170;DHT22;63889;50.596;8.690;2024-03-23T08:08:51;8.90;99.90
14170;DHT22;63889;50.596;8.690;2024-03-23T08:11:27;8.70;99.90
14170;DHT22;63889;50.596;8.690;2024-03-23T08:13:54;8.70;99.90
14170;DHT22;63889;50.596;8.690;2024-03-23T08:16:20;8.70;99.90
14170;DHT22;63889;50.596;8.690;2024-03-23T08:18:45;8.50;99.90
14170;DHT22;63889;50.596;8.690;2024-03-23T08:21:11;8.50;99.90
14170;DHT22;63889;50.596;8.690;2024-03-23T08:23:37;8.50;99.90
14170;DHT22;63889;50.596;8.690;2024-03-23T08:26:11;8.50;99.90
14170;DHT22;63889;50.596;8.690;2024-03-23T08:28:37;8.50;99.90
14170;DHT22;63889;50.596;8.690;2024-03-23T08:31:10;8.50;99.90
14170;DHT22;63889;50.596;8.690;2024-03-23T08:33:36;8.60;99.90
14170;DHT22;63889;50.596;8.690;2024-03-23T08:36:04;8.50;99.90
14170;DHT22;63889;50.596;8.690;2024-03-23T08:38:30;8.60;99.90
14170;DHT22;63889;50.596;8.690;2024-03-23T08:41:03;8.80;99.90
14170;DHT22;63889;50.596;8.690;2024-03-23T08:43:29;8.90;99.90
14170;DHT22;63889;50.596;8.690;2024-03-23T08:46:12;8.80;99.90
14170;DHT22;63889;50.596;8.690;2024-03-23T08:48:47;8.80;99.90
14170;DHT22;63889;50.596;8.690;2024-03-23T08:51:15;8.70;99.90
14170;DHT22;63889;50.596;8.690;2024-03-23T08:53:41;8.70;99.90
14170;DHT22;63889;50.596;8.690;2024-03-23T08:56:08;8.60;99.90
14170;DHT22;63889;50.596;8.690;2024-03-23T08:58:35;8.60;99.90
14170;DHT22;63889;50.596;8.690;2024-03-23T09:01:08;8.50;99.90
14170;DHT22;63889;50.596;8.690;2024-03-23T09:03:34;8.70;99.90
14170;DHT22;63889;50.596;8.690;2024-03-23T09:06:00;8.80;99.90
14170;DHT22;63889;50.596;8.690;2024-03-23T09:08:27;8.80;99.90
14170;DHT22;63889;50.596;8.690;2024-03-23T09:10:53;8.80;99.90
14170;DHT22;63889;50.596;8.690;2024-03-23T09:13:19;8.80;99.90
14170;DHT22;63889;50.596;8.690;2024-03-23T09:15:51;8.90;99.90
14170;DHT22;63889;50.596;8.690;2024-03-23T09:18:21;9.10;99.90
14170;DHT22;63889;50.596;8.690;2024-03-23T09:20:47;9.20;99.90
14170;DHT22;63889;50.596;8.690;2024-03-23T09:23:12;9.40;99.90
14170;DHT22;63889;50.596;8.690;2024-03-23T09:25:38;9.40;99.90
14170;DHT22;63889;50.596;8.690;2024-03-23T09:28:07;9.40;99.90
14170;DHT22;63889;50.596;8.690;2024-03-23T09:30:36;9.40;99.90
14170;DHT22;63889;50.596;8.690;2024-03-23T09:33:11;9.50;99.90
14170;DHT22;63889;50.596;8.690;2024-03-23T09:35:40;9.70;99.90
14170;DHT22;63889;50.596;8.690;2024-03-23T09:38:06;9.80;99.90
14170;DHT22;63889;50.596;8.690;2024-03-23T09:40:40;10.20;99.90
14170;DHT22;63889;50.596;8.690;2024-03-23T09:43:07;10.30;99.90
14170;DHT22;63889;50.596;8.690;2024-03-23T09:45:34;10.40;99.90
14170;DHT22;63889;50.596;8.690;2024-03-23T09:48:01;10.10;99.90
14170;DHT22;63889;50.596;8.690;2024-03-23T09:50:27;10.20;99.90
14170;DHT22;63889;50.596;8.690;2024-03-23T09:52:52;10.40;99.90
14170;DHT22;63889;50.596;8.690;2024-03-23T09:55:18;10.60;99.90
14170;DHT22;63889;50.596;8.690;2024-03-23T09:57:43;10.60;99.90
14170;DHT22;63889;50.596;8.690;2024-03-23T10:00:09;10.60;99.90
14170;DHT22;63889;50.596;8.690;2024-03-23T10:02:37;10.40;99.90
14170;DHT22;63889;50.596;8.690;2024-03-23T10:05:03;10.30;99.90
14170;DHT22;63889;50.596;8.690;2024-03-23T10:07:29;10.30;99.90
14170;DHT22;63889;50.596;8.690;2024-03-23T10:09:55;10.50;99.90
14170;DHT22;63889;50.596;8.690;2024-03-23T10:12:22;10.70;99.90
14170;DHT22;63889;50.596;8.690;2024-03-23T10:14:47;10.80;99.90
14170;DHT22;63889;50.596;8.690;2024-03-23T10:17:15;10.90;99.90
14170;DHT22;63889;50.596;8.690;2024-03-23T10:19:47;10.90;99.90
14170;DHT22;63889;50.596;8.690;2024-03-23T10:22:17;10.80;99.90
14170;DHT22;63889;50.596;8.690;2024-03-23T10:24:43;10.80;99.90
14170;DHT22;63889;50.596;8.690;2024-03-23T10:27:09;10.70;99.90
14170;DHT22;63889;50.596;8.690;2024-03-23T10:29:34;10.90;99.90
14170;DHT22;63889;50.596;8.690;2024-03-23T10:32:10;10.80;99.90
14170;DHT22;63889;50.596;8.690;2024-03-23T10:34:37;10.80;99.90
14170;DHT22;63889;50.596;8.690;2024-03-23T10:37:04;10.60;99.90
14170;DHT22;63889;50.596;8.690;2024-03-23T10:39:32;10.40;99.90
14170;DHT22;63889;50.596;8.690;2024-03-23T10:42:09;10.40;99.90
14170;DHT22;63889;50.596;8.690;2024-03-23T10:44:38;10.40;99.90
14170;DHT22;63889;50.596;8.690;2024-03-23T10:47:04;10.40;99.90
14170;DHT22;63889;50.596;8.690;2024-03-23T10:49:32;10.40;99.90
14170;DHT22;63889;50.596;8.690;2024-03-23T10:52:02;10.20;99.90
14170;DHT22;63889;50.596;8.690;2024-03-23T10:54:30;10.30;99.90
14170;DHT22;63889;50.596;8.690;2024-03-23T10:57:14;10.90;99.90
14170;DHT22;63889;50.596;8.690;2024-03-23T10:59:40;11.30;99.90
14170;DHT22;63889;50.596;8.690;2024-03-23T11:02:06;11.80;99.90
14170;DHT22;63889;50.596;8.690;2024-03-23T11:07:03;12.50;99.90
14170;DHT22;63889;50.596;8.690;2024-03-23T11:09:48;12.20;99.90
14170;DHT22;63889;50.596;8.690;2024-03-23T11:15:04;11.60;99.90
14170;DHT22;63889;50.596;8.690;2024-03-23T11:17:31;11.40;99.90
14170;DHT22;63889;50.596;8.690;2024-03-23T11:20:01;11.60;99.90
14170;DHT22;63889;50.596;8.690;2024-03-23T11:22:47;11.80;99.90
14170;DHT22;63889;50.596;8.690;2024-03-23T11:25:14;12.50;99.90
14170;DHT22;63889;50.596;8.690;2024-03-23T11:27:39;12.70;99.90
14170;DHT22;63889;50.596;8.690;2024-03-23T11:30:32;12.30;99.90
14170;DHT22;63889;50.596;8.690;2024-03-23T11:32:57;11.80;99.90
14170;DHT22;63889;50.596;8.690;2024-03-23T11:38:05;11.20;99.90
14170;DHT22;63889;50.596;8.690;2024-03-23T11:40:32;10.70;99.90
14170;DHT22;63889;50.596;8.690;2024-03-23T11:42:59;10.60;99.90
14170;DHT22;63889;50.596;8.690;2024-03-23T11:45:25;10.10;99.90
14170;DHT22;63889;50.596;8.690;2024-03-23T11:48:05;9.60;99.90
14170;DHT22;63889;50.596;8.690;2024-03-23T11:50:31;10.10;99.90
14170;DHT22;63889;50.596;8.690;2024-03-23T11:55:43;11.30;99.90
14170;DHT22;63889;50.596;8.690;2024-03-23T11:58:10;11.30;99.90
14170;DHT22;63889;50.596;8.690;2024-03-23T12:00:36;11.60;99.90
14170;DHT22;63889;50.596;8.690;2024-03-23T12:03:02;12.90;99.90
14170;DHT22;63889;50.596;8.690;2024-03-23T12:05:28;13.70;99.90
14170;DHT22;63889;50.596;8.690;2024-03-23T12:07:54;14.10;99.90
14170;DHT22;63889;50.596;8.690;2024-03-23T12:10:20;14.20;99.90
14170;DHT22;63889;50.596;8.690;2024-03-23T12:12:46;14.20;99.90
14170;DHT22;63889;50.596;8.690;2024-03-23T12:15:11;13.70;99.90
14170;DHT22;63889;50.596;8.690;2024-03-23T12:17:38;13.40;99.90
14170;DHT22;63889;50.596;8.690;2024-03-23T12:20:04;12.90;99.90
14170;DHT22;63889;50.596;8.690;2024-03-23T12:22:30;12.30;99.90
14170;DHT22;63889;50.596;8.690;2024-03-23T12:24:56;12.10;99.90
14170;DHT22;63889;50.596;8.690;2024-03-23T12:27:22;12.10;99.90
14170;DHT22;63889;50.596;8.690;2024-03-23T12:29:48;11.70;99.90
14170;DHT22;63889;50.596;8.690;2024-03-23T12:32:14;11.00;99.90
14170;DHT22;63889;50.596;8.690;2024-03-23T12:34:40;10.70;99.90
14170;DHT22;63889;50.596;8.690;2024-03-23T12:37:06;9.80;99.90
14170;DHT22;63889;50.596;8.690;2024-03-23T12:39:32;9.10;99.90
14170;DHT22;63889;50.596;8.690;2024-03-23T12:41:57;8.90;99.90
14170;DHT22;63889;50.596;8.690;2024-03-23T12:44:23;9.70;99.90
14170;DHT22;63889;50.596;8.690;2024-03-23T12:46:48;10.60;99.90
14170;DHT22;63889;50.596;8.690;2024-03-23T12:49:14;11.70;99.90
14170;DHT22;63889;50.596;8.690;2024-03-23T12:51:48;12.50;99.90
14170;DHT22;63889;50.596;8.690;2024-03-23T12:54:13;13.00;99.90
14170;DHT22;63889;50.596;8.690;2024-03-23T12:56:39;13.50;99.90
14170;DHT22;63889;50.596;8.690;2024-03-23T12:59:04;14.10;99.90
14170;DHT22;63889;50.596;8.690;2024-03-23T13:01:30;13.70;99.90
14170;DHT22;63889;50.596;8.690;2024-03-23T13:03:56;14.40;99.90
14170;DHT22;63889;50.596;8.690;2024-03-23T13:06:21;15.10;99.90
14170;DHT22;63889;50.596;8.690;2024-03-23T13:08:47;15.70;99.90
14170;DHT22;63889;50.596;8.690;2024-03-23T13:11:15;15.90;99.90
14170;DHT22;63889;50.596;8.690;2024-03-23T13:13:41;15.40;99.90
14170;DHT22;63889;50.596;8.690;2024-03-23T13:16:07;15.60;99.90
14170;DHT22;63889;50.596;8.690;2024-03-23T13:18:33;14.90;99.90
14170;DHT22;63889;50.596;8.690;2024-03-23T13:20:59;14.00;99.90
14170;DHT22;63889;50.596;8.690;2024-03-23T13:23:24;13.10;99.90
14170;DHT22;63889;50.596;8.690;2024-03-23T13:25:54;13.10;99.90
14170;DHT22;63889;50.596;8.690;2024-03-23T13:28:21;12.50;99.90
14170;DHT22;63889;50.596;8.690;2024-03-23T13:30:54;11.90;99.90
14170;DHT22;63889;50.596;8.690;2024-03-23T13:33:20;11.60;99.90
14170;DHT22;63889;50.596;8.690;2024-03-23T13:35:52;11.20;99.90
14170;DHT22;63889;50.596;8.690;2024-03-23T13:38:18;11.00;99.90
14170;DHT22;63889;50.596;8.690;2024-03-23T13:43:19;10.50;99.90
14170;DHT22;63889;50.596;8.690;2024-03-23T13:45:47;10.70;99.90
14170;DHT22;63889;50.596;8.690;2024-03-23T13:48:13;11.10;99.90
14170;DHT22;63889;50.596;8.690;2024-03-23T13:50:39;11.50;99.90
14170;DHT22;63889;50.596;8.690;2024-03-23T13:53:05;12.10;99.90
14170;DHT22;63889;50.596;8.690;2024-03-23T13:55:31;12.40;99.90
14170;DHT22;63889;50.596;8.690;2024-03-23T13:57:57;12.30;99.90
14170;DHT22;63889;50.596;8.690;2024-03-23T14:00:23;12.60;99.90
14170;DHT22;63889;50.596;8.690;2024-03-23T14:02:48;13.40;99.90
14170;DHT22;63889;50.596;8.690;2024-03-23T14:05:14;14.30;99.90
14170;DHT22;63889;50.596;8.690;2024-03-23T14:07:40;15.10;99.90
14170;DHT22;63889;50.596;8.690;2024-03-23T14:10:06;15.50;99.90
14170;DHT22;63889;50.596;8.690;2024-03-23T14:12:40;15.10;99.90
14170;DHT22;63889;50.596;8.690;2024-03-23T14:15:07;14.30;99.90
14170;DHT22;63889;50.596;8.690;2024-03-23T14:17:33;13.20;99.90
14170;DHT22;63889;50.596;8.690;2024-03-23T14:19:58;12.40;99.90
14170;DHT22;63889;50.596;8.690;2024-03-23T14:22:27;11.60;99.90
14170;DHT22;63889;50.596;8.690;2024-03-23T14:24:52;11.20;99.90
14170;DHT22;63889;50.596;8.690;2024-03-23T14:27:18;10.80;99.90
14170;DHT22;63889;50.596;8.690;2024-03-23T14:29:46;10.50;99.90
14170;DHT22;63889;50.596;8.690;2024-03-23T14:32:12;10.30;99.90
14170;DHT22;63889;50.596;8.690;2024-03-23T14:34:37;10.30;99.90
14170;DHT22;63889;50.596;8.690;2024-03-23T14:37:03;10.10;99.90
14170;DHT22;63889;50.596;8.690;2024-03-23T14:39:29;10.00;99.90
14170;DHT22;63889;50.596;8.690;2024-03-23T14:41:55;10.00;99.90
14170;DHT22;63889;50.596;8.690;2024-03-23T14:44:21;9.90;99.90
14170;DHT22;63889;50.596;8.690;2024-03-23T14:46:47;9.90;99.90
14170;DHT22;63889;50.596;8.690;2024-03-23T14:49:16;9.70;99.90
14170;DHT22;63889;50.596;8.690;2024-03-23T14:51:42;9.50;99.90
14170;DHT22;63889;50.596;8.690;2024-03-23T14:54:08;9.50;99.90
14170;DHT22;63889;50.596;8.690;2024-03-23T14:56:33;9.60;99.90
14170;DHT22;63889;50.596;8.690;2024-03-23T14:59:00;9.60;99.90
14170;DHT22;63889;50.596;8.690;2024-03-23T15:01:25;9.50;99.90
14170;DHT22;63889;50.596;8.690;2024-03-23T15:03:51;9.30;99.90
14170;DHT22;63889;50.596;8.690;2024-03-23T15:06:19;9.30;99.90
14170;DHT22;63889;50.596;8.690;2024-03-23T15:08:45;9.20;99.90
14170;DHT22;63889;50.596;8.690;2024-03-23T15:11:10;9.30;99.90
14170;DHT22;63889;50.596;8.690;2024-03-23T15:13:37;9.50;99.90
14170;DHT22;63889;50.596;8.690;2024-03-23T15:16:03;9.60;99.90
14170;DHT22;63889;50.596;8.690;2024-03-23T15:18:29;10.00;99.90
14170;DHT22;63889;50.596;8.690;2024-03-23T15:20:56;10.30;99.90
14170;DHT22;63889;50.596;8.690;2024-03-23T15:23:22;10.50;99.90
14170;DHT22;63889;50.596;8.690;2024-03-23T15:26:01;10.60;99.90
14170;DHT22;63889;50.596;8.690;2024-03-23T15:28:27;10.70;99.90
14170;DHT22;63889;50.596;8.690;2024-03-23T15:31:06;10.70;99.90
14170;DHT22;63889;50.596;8.690;2024-03-23T15:33:33;10.60;99.90
14170;DHT22;63889;50.596;8.690;2024-03-23T15:36:02;10.50;99.90
14170;DHT22;63889;50.596;8.690;2024-03-23T15:38:29;10.50;99.90
14170;DHT22;63889;50.596;8.690;2024-03-23T15:40:56;10.50;99.90
14170;DHT22;63889;50.596;8.690;2024-03-23T15:43:21;10.40;99.90
14170;DHT22;63889;50.596;8.690;2024-03-23T15:45:57;10.60;99.90
14170;DHT22;63889;50.596;8.690;2024-03-23T15:48:24;10.30;99.90
14170;DHT22;63889;50.596;8.690;2024-03-23T15:50:56;10.30;99.90
14170;DHT22;63889;50.596;8.690;2024-03-23T15:53:23;10.30;99.90
14170;DHT22;63889;50.596;8.690;2024-03-23T15:58:24;10.40;99.90
14170;DHT22;63889;50.596;8.690;2024-03-23T16:01:04;10.40;99.90
14170;DHT22;63889;50.596;8.690;2024-03-23T16:03:31;10.30;99.90
14170;DHT22;63889;50.596;8.690;2024-03-23T16:06:01;10.00;99.90
14170;DHT22;63889;50.596;8.690;2024-03-23T16:08:28;9.90;99.90
14170;DHT22;63889;50.596;8.690;2024-03-23T16:10:54;10.00;99.90
14170;DHT22;63889;50.596;8.690;2024-03-23T16:13:21;10.00;99.90
14170;DHT22;63889;50.596;8.690;2024-03-23T16:16:03;10.00;99.90
14170;DHT22;63889;50.596;8.690;2024-03-23T16:18:32;10.10;99.90
14170;DHT22;63889;50.596;8.690;2024-03-23T16:20:59;10.00;99.90
14170;DHT22;63889;50.596;8.690;2024-03-23T16:23:25;9.90;99.90
14170;DHT22;63889;50.596;8.690;2024-03-23T16:25:52;10.00;99.90
14170;DHT22;63889;50.596;8.690;2024-03-23T16:28:25;9.90;99.90
14170;DHT22;63889;50.596;8.690;2024-03-23T16:31:07;9.90;99.90
14170;DHT22;63889;50.596;8.690;2024-03-23T16:33:33;9.90;99.90
14170;DHT22;63889;50.596;8.690;2024-03-23T16:36:04;9.90;99.90
14170;DHT22;63889;50.596;8.690;2024-03-23T16:38:33;9.90;99.90
14170;DHT22;63889;50.596;8.690;2024-03-23T16:41:12;9.80;99.90
14170;DHT22;63889;50.596;8.690;2024-03-23T16:43:39;9.40;99.90
14170;DHT22;63889;50.596;8.690;2024-03-23T16:46:07;8.80;99.90
14170;DHT22;63889;50.596;8.690;2024-03-23T16:48:36;8.30;99.90
14170;DHT22;63889;50.596;8.690;2024-03-23T16:51:02;7.70;99.90
14170;DHT22;63889;50.596;8.690;2024-03-23T16:53:32;7.50;99.90
14170;DHT22;63889;50.596;8.690;2024-03-23T16:56:03;7.40;99.90
14170;DHT22;63889;50.596;8.690;2024-03-23T16:58:32;7.20;99.90